createdAt,value
2023-03-16T00:02:06.307Z,101519.94
2023-03-16T00:04:37.268Z,101514.53
2023-03-16T00:07:09.508Z,101516.38
2023-03-16T00:09:40.809Z,101515.50
2023-03-16T00:12:16.190Z,101515.59
2023-03-16T00:14:44.884Z,101512.88
2023-03-16T00:17:22.179Z,101514.66
2023-03-16T00:19:54.662Z,101514.66
2023-03-16T00:22:23.260Z,101515.44
2023-03-16T00:24:49.648Z,101509.41
2023-03-16T00:27:16.347Z,101504.28
2023-03-16T00:29:46.968Z,101508.56
2023-03-16T00:32:21.559Z,101512.78
2023-03-16T00:34:48.264Z,101519.75
2023-03-16T00:37:17.232Z,101511.72
2023-03-16T00:39:45.789Z,101512.34
2023-03-16T00:42:16.336Z,101504.31
2023-03-16T00:44:43.465Z,101513.09
2023-03-16T00:47:14.077Z,101512.91
2023-03-16T00:49:42.686Z,101507.69
2023-03-16T00:52:14.509Z,101503.19
2023-03-16T00:54:43.110Z,101497.06
2023-03-16T00:57:11.977Z,101510.16
2023-03-16T00:59:38.647Z,101509.09
2023-03-16T01:02:07.401Z,101518.81
2023-03-16T01:04:35.932Z,101523.19
2023-03-16T01:07:07.146Z,101517.84
2023-03-16T01:09:36.945Z,101510.78
2023-03-16T01:12:15.735Z,101505.47
2023-03-16T01:14:45.733Z,101495.81
2023-03-16T01:17:13.862Z,101497.47
2023-03-16T01:19:41.365Z,101487.81
2023-03-16T01:22:09.681Z,101489.31
2023-03-16T01:24:36.532Z,101485.91
2023-03-16T01:27:04.335Z,101484.09
2023-03-16T01:29:31.627Z,101479.69
2023-03-16T01:31:58.882Z,101484.94
2023-03-16T01:34:25.341Z,101478.63
2023-03-16T01:36:52.179Z,101475.34
2023-03-16T01:39:28.455Z,101460.00
2023-03-16T01:41:54.863Z,101452.94
2023-03-16T01:44:30.170Z,101446.63
2023-03-16T01:47:00.121Z,101449.41
2023-03-16T01:49:33.823Z,101457.34
2023-03-16T01:52:15.450Z,101442.34
2023-03-16T01:54:50.475Z,101448.38
2023-03-16T01:57:21.885Z,101450.97
2023-03-16T01:59:57.782Z,101443.81
2023-03-16T02:02:29.747Z,101444.72
2023-03-16T02:05:08.244Z,101441.03
2023-03-16T02:07:42.281Z,101430.53
2023-03-16T02:10:10.650Z,101427.91
2023-03-16T02:12:37.670Z,101429.72
2023-03-16T02:15:05.746Z,101433.31
2023-03-16T02:17:34.546Z,101432.41
2023-03-16T02:20:22.804Z,101417.44
2023-03-16T02:22:54.062Z,101416.34
2023-03-16T02:25:51.900Z,101411.00
2023-03-16T02:28:36.938Z,101406.09
2023-03-16T02:31:05.703Z,101409.75
2023-03-16T02:33:33.821Z,101401.75
2023-03-16T02:36:00.399Z,101400.63
2023-03-16T02:38:27.924Z,101402.31
2023-03-16T02:40:59.567Z,101394.41
2023-03-16T02:43:33.110Z,101397.13
2023-03-16T02:46:09.702Z,101398.00
2023-03-16T02:48:45.543Z,101394.66
2023-03-16T02:51:12.093Z,101391.94
2023-03-16T02:53:38.467Z,101387.63
2023-03-16T02:56:05.426Z,101377.00
2023-03-16T02:58:34.665Z,101381.19
2023-03-16T03:01:04.626Z,101380.41
2023-03-16T03:03:34.454Z,101371.56
2023-03-16T03:06:01.878Z,101367.34
2023-03-16T03:08:33.234Z,101376.94
2023-03-16T03:11:00.114Z,101373.47
2023-03-16T03:13:26.528Z,101376.94
2023-03-16T03:15:53.030Z,101373.50
2023-03-16T03:18:22.290Z,101370.72
2023-03-16T03:20:48.669Z,101360.09
2023-03-16T03:23:16.965Z,101356.66
2023-03-16T03:25:43.419Z,101357.69
2023-03-16T03:28:11.336Z,101351.47
2023-03-16T03:30:37.820Z,101354.03
2023-03-16T03:33:04.573Z,101351.47
2023-03-16T03:35:31.626Z,101356.00
2023-03-16T03:37:58.014Z,101360.25
2023-03-16T03:40:26.221Z,101361.06
2023-03-16T03:42:58.368Z,101365.25
2023-03-16T03:45:25.134Z,101368.88
2023-03-16T03:47:51.504Z,101357.97
2023-03-16T03:50:20.982Z,101348.38
2023-03-16T03:53:10.528Z,101357.13
2023-03-16T03:55:56.720Z,101346.69
2023-03-16T03:58:23.223Z,101350.09
2023-03-16T04:00:49.546Z,101347.50
2023-03-16T04:03:17.467Z,101342.69
2023-03-16T04:05:45.045Z,101339.03
2023-03-16T04:08:12.293Z,101339.06
2023-03-16T04:10:39.140Z,101335.47
2023-03-16T04:13:05.641Z,101336.34
2023-03-16T04:15:34.045Z,101336.25
2023-03-16T04:18:09.931Z,101330.00
2023-03-16T04:20:36.989Z,101324.53
2023-03-16T04:23:04.897Z,101320.00
2023-03-16T04:25:31.752Z,101310.97
2023-03-16T04:27:58.898Z,101311.88
2023-03-16T04:30:30.815Z,101310.97
2023-03-16T04:33:06.363Z,101303.84
2023-03-16T04:35:32.792Z,101299.59
2023-03-16T04:37:59.160Z,101299.53
2023-03-16T04:40:34.517Z,101297.84
2023-03-16T04:43:07.706Z,101290.69
2023-03-16T04:45:34.785Z,101297.84
2023-03-16T04:48:01.290Z,101294.13
2023-03-16T04:50:28.013Z,101292.38
2023-03-16T04:52:55.042Z,101295.06
2023-03-16T04:55:22.793Z,101283.41
2023-03-16T04:57:49.932Z,101291.41
2023-03-16T05:00:19.798Z,101296.78
2023-03-16T05:02:54.318Z,101295.06
2023-03-16T05:05:21.548Z,101299.28
2023-03-16T05:07:48.223Z,101292.13
2023-03-16T05:10:18.670Z,101294.50
2023-03-16T05:12:45.367Z,101286.69
2023-03-16T05:15:13.790Z,101293.44
2023-03-16T05:17:42.084Z,101293.06
2023-03-16T05:20:15.439Z,101279.47
2023-03-16T05:22:48.022Z,101277.75
2023-03-16T05:25:20.757Z,101278.44
2023-03-16T05:27:53.785Z,101287.97
2023-03-16T05:30:28.259Z,101280.91
2023-03-16T05:32:58.134Z,101274.47
2023-03-16T05:35:25.603Z,101272.41
2023-03-16T05:37:55.559Z,101276.03
2023-03-16T05:40:22.754Z,101275.00
2023-03-16T05:43:00.162Z,101280.19
2023-03-16T05:45:28.133Z,101281.81
2023-03-16T05:48:02.564Z,101277.91
2023-03-16T05:50:29.795Z,101281.59
2023-03-16T05:52:56.498Z,101280.72
2023-03-16T05:55:23.877Z,101282.53
2023-03-16T05:57:55.702Z,101284.16
2023-03-16T06:00:23.003Z,101278.03
2023-03-16T06:02:58.891Z,101278.69
2023-03-16T06:05:30.272Z,101277.72
2023-03-16T06:07:56.783Z,101283.06
2023-03-16T06:10:26.429Z,101281.25
2023-03-16T06:12:53.193Z,101277.63
2023-03-16T06:15:24.762Z,101286.41
2023-03-16T06:17:51.970Z,101281.91
2023-03-16T06:20:18.881Z,101288.94
2023-03-16T06:22:45.376Z,101288.94
2023-03-16T06:25:13.822Z,101286.25
2023-03-16T06:27:42.523Z,101284.44
2023-03-16T06:30:13.489Z,101275.41
2023-03-16T06:32:42.098Z,101281.47
2023-03-16T06:35:09.679Z,101288.50
2023-03-16T06:37:39.088Z,101288.44
2023-03-16T06:40:19.808Z,101293.84
2023-03-16T06:42:47.349Z,101283.00
2023-03-16T06:45:18.193Z,101302.38
2023-03-16T06:47:44.685Z,101289.75
2023-03-16T06:50:11.852Z,101278.94
2023-03-16T06:52:39.791Z,101285.16
2023-03-16T06:55:06.650Z,101289.31
2023-03-16T06:57:35.714Z,101289.13
2023-03-16T07:00:04.098Z,101286.34
2023-03-16T07:02:30.487Z,101289.88
2023-03-16T07:04:56.912Z,101293.31
2023-03-16T07:07:24.402Z,101285.38
2023-03-16T07:09:51.610Z,101290.50
2023-03-16T07:12:18.556Z,101286.84
2023-03-16T07:14:44.965Z,101291.22
2023-03-16T07:17:13.662Z,101290.94
2023-03-16T07:19:40.107Z,101295.22
2023-03-16T07:22:06.463Z,101294.88
2023-03-16T07:24:36.847Z,101298.25
2023-03-16T07:27:03.453Z,101306.72
2023-03-16T07:29:31.424Z,101313.59
2023-03-16T07:31:57.847Z,101304.22
2023-03-16T07:34:31.435Z,101309.44
2023-03-16T07:36:58.804Z,101314.25
2023-03-16T07:39:28.586Z,101316.72
2023-03-16T07:42:01.460Z,101307.13
2023-03-16T07:44:46.392Z,101313.03
2023-03-16T07:47:13.475Z,101310.22
2023-03-16T07:49:41.692Z,101308.97
2023-03-16T07:52:08.646Z,101317.50
2023-03-16T07:54:40.641Z,101309.47
2023-03-16T07:57:08.287Z,101311.50
2023-03-16T07:59:39.236Z,101308.34
2023-03-16T08:02:16.790Z,101309.69
2023-03-16T08:04:44.499Z,101304.44
2023-03-16T08:07:14.213Z,101299.63
2023-03-16T08:09:51.331Z,101298.41
2023-03-16T08:12:22.831Z,101295.50
2023-03-16T08:14:49.597Z,101296.91
2023-03-16T08:17:20.267Z,101282.50
2023-03-16T08:19:47.415Z,101282.28
2023-03-16T08:22:14.617Z,101292.00
2023-03-16T08:24:44.626Z,101286.69
2023-03-16T08:27:13.178Z,101287.50
2023-03-16T08:29:43.132Z,101295.53
2023-03-16T08:32:13.613Z,101294.50
2023-03-16T08:34:43.153Z,101297.81
2023-03-16T08:37:10.386Z,101297.91
2023-03-16T08:39:36.768Z,101290.25
2023-03-16T08:42:08.388Z,101291.06
2023-03-16T08:44:41.405Z,101303.56
2023-03-16T08:47:07.970Z,101303.72
2023-03-16T08:49:35.389Z,101317.16
2023-03-16T08:52:10.303Z,101303.78
2023-03-16T08:54:37.165Z,101310.41
2023-03-16T08:57:04.243Z,101320.78
2023-03-16T08:59:31.161Z,101308.69
2023-03-16T09:01:57.703Z,101312.06
2023-03-16T09:04:24.338Z,101306.75
2023-03-16T09:07:05.855Z,101304.03
2023-03-16T09:09:35.484Z,101301.72
2023-03-16T09:12:02.396Z,101298.13
2023-03-16T09:14:29.016Z,101297.97
2023-03-16T09:16:56.398Z,101300.97
2023-03-16T09:19:22.844Z,101310.50
2023-03-16T09:21:49.190Z,101307.78
2023-03-16T09:24:15.543Z,101314.72
2023-03-16T09:26:42.604Z,101310.25
2023-03-16T09:29:09.247Z,101305.31
2023-03-16T09:31:36.177Z,101310.75
2023-03-16T09:34:02.773Z,101312.44
2023-03-16T09:36:29.142Z,101299.69
2023-03-16T09:38:56.172Z,101297.41
2023-03-16T09:41:35.660Z,101290.00
2023-03-16T09:44:14.197Z,101289.19
2023-03-16T09:46:45.344Z,101285.31
2023-03-16T09:49:16.280Z,101294.34
2023-03-16T09:51:52.258Z,101287.03
2023-03-16T09:54:50.536Z,101292.63
2023-03-16T09:57:28.404Z,101275.22
2023-03-16T10:00:02.803Z,101289.88
2023-03-16T10:02:44.877Z,101286.13
2023-03-16T10:05:17.202Z,101285.38
2023-03-16T10:08:06.875Z,101285.72
2023-03-16T10:10:55.411Z,101288.34
2023-03-16T10:13:38.413Z,101279.31
2023-03-16T10:16:11.060Z,101276.25
2023-03-16T10:18:46.879Z,101273.44
2023-03-16T10:21:16.843Z,101263.31
2023-03-16T10:23:44.753Z,101269.28
2023-03-16T10:26:15.581Z,101268.13
2023-03-16T10:28:43.442Z,101266.22
2023-03-16T10:31:11.811Z,101270.22
2023-03-16T10:33:39.544Z,101259.16
2023-03-16T10:36:24.226Z,101267.63
2023-03-16T10:38:55.191Z,101269.13
2023-03-16T10:41:26.957Z,101271.06
2023-03-16T10:43:57.138Z,101255.06
2023-03-16T10:46:28.847Z,101249.28
2023-03-16T10:49:01.094Z,101240.88
2023-03-16T10:51:30.945Z,101229.25
2023-03-16T10:54:14.117Z,101208.34
2023-03-16T10:56:40.559Z,101205.16
2023-03-16T10:59:25.882Z,101206.00
2023-03-16T11:01:52.273Z,101217.53
2023-03-16T11:04:19.282Z,101212.88
2023-03-16T11:06:56.101Z,101193.31
2023-03-16T11:09:27.691Z,101199.81
2023-03-16T11:11:54.575Z,101189.78
2023-03-16T11:14:26.174Z,101193.69
2023-03-16T11:17:10.634Z,101195.34
2023-03-16T11:19:46.051Z,101186.81
2023-03-16T11:22:14.850Z,101192.91
2023-03-16T11:25:01.743Z,101193.75
2023-03-16T11:27:54.289Z,101188.47
2023-03-16T11:30:29.108Z,101181.03
2023-03-16T11:32:55.726Z,101173.06
2023-03-16T11:35:59.310Z,101167.91
2023-03-16T11:38:44.878Z,101152.72
2023-03-16T11:41:18.365Z,101161.22
2023-03-16T11:43:52.849Z,101148.00
2023-03-16T11:46:24.970Z,101140.66
2023-03-16T11:49:19.099Z,101146.59
2023-03-16T11:51:56.613Z,101141.13
2023-03-16T11:54:52.998Z,101137.09
2023-03-16T11:57:53.477Z,101141.66
2023-03-16T12:00:40.278Z,101132.91
2023-03-16T12:03:25.757Z,101131.13
2023-03-16T12:06:46.919Z,101121.41
2023-03-16T12:09:20.063Z,101104.22
2023-03-16T12:11:57.619Z,101108.38
2023-03-16T12:14:30.159Z,101099.88
2023-03-16T12:17:05.637Z,101094.91
2023-03-16T12:19:45.446Z,101101.28
2023-03-16T12:22:21.433Z,101077.97
2023-03-16T12:24:48.613Z,101072.00
2023-03-16T12:27:20.273Z,101071.47
2023-03-16T12:30:05.414Z,101063.94
2023-03-16T12:32:42.008Z,101056.22
2023-03-16T12:35:22.697Z,101050.00
2023-03-16T12:38:13.824Z,101044.44
2023-03-16T12:40:54.964Z,101049.25
2023-03-16T12:43:48.727Z,101042.38
2023-03-16T12:46:30.262Z,101042.25
2023-03-16T12:49:01.087Z,101040.84
2023-03-16T12:51:44.012Z,101040.94
2023-03-16T12:54:25.196Z,101040.63
2023-03-16T12:56:54.129Z,101034.88
2023-03-16T12:59:22.992Z,101019.31
2023-03-16T13:01:58.487Z,101021.88
2023-03-16T13:04:34.841Z,101013.53
2023-03-16T13:07:06.003Z,101021.13
2023-03-16T13:09:41.992Z,101013.22
2023-03-16T13:12:10.153Z,101005.16
2023-03-16T13:14:38.050Z,101004.28
2023-03-16T13:17:21.648Z,101005.16
2023-03-16T13:20:29.796Z,100986.09
2023-03-16T13:23:18.650Z,100990.38
2023-03-16T13:26:05.974Z,100994.16
2023-03-16T13:28:36.518Z,100981.97
2023-03-16T13:31:04.649Z,100982.16
2023-03-16T13:33:36.616Z,100979.91
2023-03-16T13:36:06.133Z,100980.28
2023-03-16T13:38:32.573Z,100982.59
2023-03-16T13:41:04.590Z,100965.53
2023-03-16T13:43:32.933Z,100953.28
2023-03-16T13:45:59.421Z,100947.88
2023-03-16T13:48:25.870Z,100941.28
2023-03-16T13:50:54.650Z,100940.63
2023-03-16T13:53:28.855Z,100932.44
2023-03-16T13:55:57.060Z,100931.09
2023-03-16T13:58:31.877Z,100932.94
2023-03-16T14:01:01.674Z,100926.38
2023-03-16T14:03:36.997Z,100920.78
2023-03-16T14:06:04.887Z,100927.47
2023-03-16T14:08:32.391Z,100915.09
2023-03-16T14:11:01.222Z,100911.44
2023-03-16T14:13:27.915Z,100900.34
2023-03-16T14:15:57.038Z,100903.16
2023-03-16T14:18:31.983Z,100889.06
2023-03-16T14:20:58.355Z,100900.25
2023-03-16T14:23:31.050Z,100901.34
2023-03-16T14:25:57.611Z,100896.31
2023-03-16T14:28:32.374Z,100886.88
2023-03-16T14:31:04.369Z,100884.69
2023-03-16T14:33:33.866Z,100878.47
2023-03-16T14:36:09.826Z,100880.41
2023-03-16T14:38:44.614Z,100889.03
2023-03-16T14:41:23.498Z,100874.19
2023-03-16T14:44:01.447Z,100877.97
2023-03-16T14:46:33.010Z,100866.09
2023-03-16T14:49:20.190Z,100858.72
2023-03-16T14:51:48.302Z,100853.50
2023-03-16T14:54:17.099Z,100851.03
2023-03-16T14:56:48.238Z,100849.97
2023-03-16T14:59:14.608Z,100851.97
2023-03-16T15:01:41.097Z,100844.16
2023-03-16T15:04:07.755Z,100845.44
2023-03-16T15:06:34.925Z,100832.41
2023-03-16T15:09:01.856Z,100823.97
2023-03-16T15:11:29.511Z,100825.00
2023-03-16T15:14:14.155Z,100827.81
2023-03-16T15:16:42.333Z,100817.19
2023-03-16T15:19:09.808Z,100819.63
2023-03-16T15:21:36.306Z,100811.22
2023-03-16T15:24:02.857Z,100813.78
2023-03-16T15:26:29.681Z,100816.69
2023-03-16T15:28:57.169Z,100804.84
2023-03-16T15:31:24.393Z,100813.66
2023-03-16T15:33:50.903Z,100816.06
2023-03-16T15:36:22.402Z,100821.09
2023-03-16T15:38:51.293Z,100811.56
2023-03-16T15:41:17.718Z,100814.34
2023-03-16T15:43:48.396Z,100804.09
2023-03-16T15:46:14.898Z,100798.56
2023-03-16T15:48:41.391Z,100784.44
2023-03-16T15:51:14.604Z,100781.41
2023-03-16T15:53:50.159Z,100781.66
2023-03-16T15:56:21.935Z,100781.03
2023-03-16T15:58:49.068Z,100777.47
2023-03-16T16:01:24.050Z,100775.66
2023-03-16T16:03:51.565Z,100768.59
2023-03-16T16:06:18.157Z,100759.16
2023-03-16T16:08:44.597Z,100767.09
2023-03-16T16:11:28.050Z,100770.50
2023-03-16T16:13:56.814Z,100760.59
2023-03-16T16:16:25.710Z,100745.69
2023-03-16T16:18:52.220Z,100737.06
2023-03-16T16:21:23.084Z,100744.50
2023-03-16T16:23:51.371Z,100739.25
2023-03-16T16:26:49.086Z,100735.09
2023-03-16T16:29:22.032Z,100740.97
2023-03-16T16:31:48.619Z,100743.44
2023-03-16T16:34:17.973Z,100745.38
2023-03-16T16:36:44.867Z,100753.16
2023-03-16T16:39:12.512Z,100762.81
2023-03-16T16:41:39.842Z,100758.53
2023-03-16T16:44:16.142Z,100758.41
2023-03-16T16:46:43.724Z,100755.69
2023-03-16T16:49:30.431Z,100751.78
2023-03-16T16:51:57.595Z,100766.72
2023-03-16T16:54:26.108Z,100758.72
2023-03-16T16:56:54.566Z,100754.16
2023-03-16T16:59:28.817Z,100758.38
2023-03-16T17:01:56.420Z,100755.50
2023-03-16T17:04:25.891Z,100755.72
2023-03-16T17:06:55.424Z,100763.16
2023-03-16T17:09:23.164Z,100770.13
2023-03-16T17:11:50.775Z,100762.09
2023-03-16T17:14:19.880Z,100769.19
2023-03-16T17:16:48.232Z,100767.28
2023-03-16T17:19:20.017Z,100763.44
2023-03-16T17:21:46.624Z,100760.03
2023-03-16T17:24:13.567Z,100756.78
2023-03-16T17:26:45.695Z,100762.47
2023-03-16T17:29:32.741Z,100766.53
2023-03-16T17:32:04.435Z,100757.75
2023-03-16T17:34:33.637Z,100763.22
2023-03-16T17:37:01.630Z,100765.91
2023-03-16T17:39:30.926Z,100751.00
2023-03-16T17:42:03.900Z,100754.75
2023-03-16T17:44:37.872Z,100761.28
2023-03-16T17:47:13.337Z,100757.09
2023-03-16T17:49:40.198Z,100758.06
2023-03-16T17:52:26.561Z,100766.19
2023-03-16T17:54:54.238Z,100767.25
2023-03-16T17:57:38.996Z,100766.59
2023-03-16T18:00:18.550Z,100767.56
2023-03-16T18:03:13.509Z,100764.56
2023-03-16T18:05:41.049Z,100764.09
2023-03-16T18:08:22.211Z,100757.16
2023-03-16T18:10:53.202Z,100755.13
2023-03-16T18:13:27.452Z,100752.13
2023-03-16T18:15:55.701Z,100743.72
2023-03-16T18:18:26.395Z,100756.16
2023-03-16T18:20:54.847Z,100755.59
2023-03-16T18:23:24.121Z,100760.50
2023-03-16T18:25:52.815Z,100756.97
2023-03-16T18:28:19.512Z,100754.00
2023-03-16T18:30:48.917Z,100750.56
2023-03-16T18:33:30.435Z,100760.97
2023-03-16T18:36:03.076Z,100768.16
2023-03-16T18:38:32.719Z,100763.38
2023-03-16T18:41:01.926Z,100756.00
2023-03-16T18:43:29.110Z,100750.88
2023-03-16T18:45:56.728Z,100758.34
2023-03-16T18:48:29.644Z,100758.72
2023-03-16T18:50:56.365Z,100759.19
2023-03-16T18:53:22.846Z,100762.72
2023-03-16T18:55:50.225Z,100746.34
2023-03-16T18:58:23.787Z,100743.84
2023-03-16T19:01:01.287Z,100754.66
2023-03-16T19:03:34.505Z,100747.28
2023-03-16T19:06:01.833Z,100760.88
2023-03-16T19:08:29.259Z,100763.00
2023-03-16T19:11:01.304Z,100757.47
2023-03-16T19:13:28.303Z,100764.28
2023-03-16T19:15:57.472Z,100754.44
2023-03-16T19:18:25.975Z,100770.22
2023-03-16T19:20:53.735Z,100767.34
2023-03-16T19:23:32.437Z,100761.06
2023-03-16T19:25:59.018Z,100755.03
2023-03-16T19:28:29.036Z,100750.75
2023-03-16T19:30:56.868Z,100736.81
2023-03-16T19:33:26.174Z,100746.94
2023-03-16T19:35:54.258Z,100750.56
2023-03-16T19:38:22.083Z,100744.34
2023-03-16T19:40:57.123Z,100743.00
2023-03-16T19:43:25.147Z,100752.66
2023-03-16T19:45:52.189Z,100752.59
2023-03-16T19:48:31.047Z,100755.56
2023-03-16T19:50:57.421Z,100747.34
2023-03-16T19:53:25.404Z,100749.53
2023-03-16T19:55:53.262Z,100751.28
2023-03-16T19:58:29.211Z,100739.53
2023-03-16T20:00:56.499Z,100746.56
2023-03-16T20:03:22.887Z,100738.13
2023-03-16T20:05:49.270Z,100736.59
2023-03-16T20:08:24.986Z,100730.97
2023-03-16T20:10:52.689Z,100733.72
2023-03-16T20:13:19.416Z,100729.44
2023-03-16T20:15:46.473Z,100721.84
2023-03-16T20:18:15.150Z,100707.72
2023-03-16T20:20:43.024Z,100712.84
2023-03-16T20:23:18.602Z,100707.59
2023-03-16T20:25:46.122Z,100696.56
2023-03-16T20:28:22.293Z,100692.84
2023-03-16T20:30:49.046Z,100695.81
2023-03-16T20:33:24.494Z,100684.06
2023-03-16T20:35:53.365Z,100682.56
2023-03-16T20:38:20.012Z,100677.91
2023-03-16T20:40:50.164Z,100674.16
2023-03-16T20:43:23.957Z,100681.00
2023-03-16T20:45:52.699Z,100669.03
2023-03-16T20:48:19.074Z,100675.84
2023-03-16T20:50:45.638Z,100666.44
2023-03-16T20:53:12.256Z,100673.22
2023-03-16T20:55:39.492Z,100651.13
2023-03-16T20:58:18.022Z,100650.47
2023-03-16T21:00:45.500Z,100655.59
2023-03-16T21:03:20.589Z,100642.75
2023-03-16T21:05:47.218Z,100639.53
2023-03-16T21:08:15.170Z,100636.00
2023-03-16T21:10:44.571Z,100635.16
2023-03-16T21:13:20.583Z,100635.25
2023-03-16T21:15:49.836Z,100623.06
2023-03-16T21:18:21.435Z,100627.16
2023-03-16T21:20:49.518Z,100618.47
2023-03-16T21:23:18.956Z,100626.78
2023-03-16T21:25:51.470Z,100618.78
2023-03-16T21:28:19.249Z,100614.75
2023-03-16T21:30:51.296Z,100610.19
2023-03-16T21:33:31.567Z,100607.72
2023-03-16T21:36:00.148Z,100608.31
2023-03-16T21:38:28.464Z,100616.88
2023-03-16T21:40:55.107Z,100600.25
2023-03-16T21:43:22.142Z,100599.09
2023-03-16T21:45:50.549Z,100606.69
2023-03-16T21:48:23.278Z,100595.25
2023-03-16T21:50:50.788Z,100594.63
2023-03-16T21:53:23.570Z,100584.16
2023-03-16T21:55:51.511Z,100584.84
2023-03-16T21:58:18.706Z,100584.06
2023-03-16T22:00:46.616Z,100594.53
2023-03-16T22:03:47.759Z,100585.31
2023-03-16T22:06:15.965Z,100573.63
2023-03-16T22:08:42.636Z,100578.38
2023-03-16T22:11:16.611Z,100584.19
2023-03-16T22:13:42.976Z,100575.13
2023-03-16T22:16:15.807Z,100581.81
2023-03-16T22:18:43.244Z,100579.41
2023-03-16T22:21:34.811Z,100560.06
2023-03-16T22:24:02.299Z,100553.22
2023-03-16T22:26:29.523Z,100562.28
2023-03-16T22:28:56.428Z,100562.38
2023-03-16T22:31:35.071Z,100563.25
2023-03-16T22:34:04.223Z,100558.41
2023-03-16T22:36:32.160Z,100562.97
2023-03-16T22:39:05.551Z,100561.56
2023-03-16T22:41:32.192Z,100564.53
2023-03-16T22:43:59.454Z,100559.09
2023-03-16T22:46:27.791Z,100551.63
2023-03-16T22:48:55.513Z,100542.44
2023-03-16T22:51:27.959Z,100546.44
2023-03-16T22:54:01.848Z,100540.66
2023-03-16T22:56:29.258Z,100538.34
2023-03-16T22:58:58.962Z,100544.91
2023-03-16T23:01:47.488Z,100540.00
2023-03-16T23:04:29.743Z,100555.31
2023-03-16T23:06:56.462Z,100549.00
2023-03-16T23:09:23.046Z,100551.50
2023-03-16T23:11:54.011Z,100554.19
2023-03-16T23:14:27.506Z,100544.28
2023-03-16T23:16:54.037Z,100543.97
2023-03-16T23:19:33.793Z,100543.97
2023-03-16T23:22:03.343Z,100532.72
2023-03-16T23:24:29.805Z,100540.28
2023-03-16T23:26:56.673Z,100532.94
2023-03-16T23:29:23.553Z,100532.28
2023-03-16T23:31:50.423Z,100528.66
2023-03-16T23:34:19.626Z,100532.09
2023-03-16T23:36:46.405Z,100537.50
2023-03-16T23:39:13.024Z,100528.84
2023-03-16T23:41:43.005Z,100523.59
2023-03-16T23:44:15.683Z,100521.00
2023-03-16T23:46:42.066Z,100519.09
2023-03-16T23:49:18.058Z,100517.69
2023-03-16T23:51:46.117Z,100513.44
2023-03-16T23:54:18.305Z,100498.19
2023-03-16T23:56:44.899Z,100496.47
2023-03-16T23:59:11.530Z,100504.16
